Time;durP1;ratioP1;P1;durP2;ratioP2;P2;SDS_P1;SDS_P2;PMS_P1;PMS_P2;Temp;Humidity;BMP_temperature;BMP_pressure;BME280_temperature;BME280_humidity;BME280_pressure;Samples;Min_cycle;Max_cycle;Signal;HPM_P1;HPM_P2
2023/07/05 00:00:36;;;;;;;6.03;2.90;;;;;;;22.45;48.78;101118.78;4977370;28;20031;-47
2023/07/05 00:03:03;;;;;;;7.03;3.70;;;;;;;22.58;49.38;101115.44;4977242;28;20122;-46
2023/07/05 00:05:30;;;;;;;8.95;3.88;;;;;;;22.62;48.97;101105.63;4977149;28;20027;-49
2023/07/05 00:07:56;;;;;;;6.80;3.05;;;;;;;22.68;48.52;101103.66;4978086;28;20109;-48
2023/07/05 00:10:23;;;;;;;7.03;3.47;;;;;;;21.92;49.58;101109.34;4977996;28;20026;-45
2023/07/05 00:12:49;;;;;;;6.05;2.80;;;;;;;21.73;50.39;101111.81;4977564;28;20023;-48
2023/07/05 00:15:15;;;;;;;5.25;3.10;;;;;;;21.67;50.44;101112.94;4977382;28;20035;-46
2023/07/05 00:17:41;;;;;;;7.05;3.80;;;;;;;21.17;50.79;101109.88;4977044;28;20495;-44
2023/07/05 00:20:09;;;;;;;6.15;3.78;;;;;;;21.05;51.71;101107.41;4976939;28;20085;-44
2023/07/05 00:22:35;;;;;;;6.43;3.40;;;;;;;20.98;52.94;101114.19;4977553;28;20038;-49
2023/07/05 00:25:02;;;;;;;5.50;3.67;;;;;;;21.13;53.37;101111.50;4977074;28;20030;-44
2023/07/05 00:27:29;;;;;;;5.15;2.97;;;;;;;21.31;51.88;101100.09;4977035;28;20027;-48
2023/07/05 00:29:55;;;;;;;5.30;3.22;;;;;;;20.98;53.01;101104.09;4976958;28;20476;-47
2023/07/05 00:32:22;;;;;;;6.15;2.88;;;;;;;20.92;54.03;101099.75;4976742;28;20039;-45
2023/07/05 00:34:48;;;;;;;6.15;2.80;;;;;;;21.02;52.92;101098.94;4976803;28;20027;-46
2023/07/05 00:37:15;;;;;;;5.45;3.33;;;;;;;21.02;53.53;101088.06;4977020;28;20034;-48
2023/07/05 00:39:41;;;;;;;4.93;3.10;;;;;;;20.34;53.94;101093.53;4976633;28;20435;-45
2023/07/05 00:42:07;;;;;;;5.35;3.10;;;;;;;20.73;54.26;101093.19;4976733;28;20081;-47
2023/07/05 00:44:34;;;;;;;4.57;2.80;;;;;;;20.88;53.43;101095.13;4976652;28;20023;-48
2023/07/05 00:47:17;;;;;;;5.00;2.53;;;;;;;20.79;54.38;101101.06;4975996;28;20066;-48
2023/07/05 00:49:43;;;;;;;5.63;3.30;;;;;;;20.27;55.57;101115.53;4977103;28;20357;-47
2023/07/05 00:52:13;;;;;;;4.90;2.75;;;;;;;19.98;56.80;101115.06;4976371;28;20026;-46
2023/07/05 00:54:45;;;;;;;3.67;3.28;;;;;;;20.24;56.32;101113.31;4959032;28;20377;-46
2023/07/05 00:57:18;;;;;;;4.22;3.30;;;;;;;20.28;56.42;101113.63;4976487;28;20047;-45
2023/07/05 01:00:11;;;;;;;4.55;2.63;;;;;;;20.36;56.82;101115.00;4976328;28;20231;-49
2023/07/05 01:02:40;;;;;;;4.13;3.10;;;;;;;20.10;56.81;101120.31;4968202;28;20070;-46
2023/07/05 01:05:11;;;;;;;4.30;2.78;;;;;;;19.82;56.78;101115.22;4976189;28;20034;-47
2023/07/05 01:07:37;;;;;;;3.53;2.92;;;;;;;19.95;57.78;101120.22;4976292;28;20023;-49
2023/07/05 01:10:04;;;;;;;3.22;2.42;;;;;;;19.97;57.51;101126.19;4975039;28;20033;-46
2023/07/05 01:12:56;;;;;;;5.32;3.17;;;;;;;19.55;58.86;101132.38;4976410;28;20062;-48
2023/07/05 01:16:00;;;;;;;3.55;2.80;;;;;;;19.60;59.41;101124.31;4960542;28;20038;-49
2023/07/05 01:18:40;;;;;;;5.05;2.70;;;;;;;19.81;58.73;101132.59;4975983;28;20027;-48
2023/07/05 01:21:19;;;;;;;4.55;2.60;;;;;;;19.50;58.49;101119.59;4975888;28;20035;-47
2023/07/05 01:24:17;;;;;;;4.00;2.30;;;;;;;19.52;59.11;101127.47;4976213;28;20031;-46
2023/07/05 01:27:10;;;;;;;3.78;2.85;;;;;;;19.19;59.48;101121.19;4975878;28;20034;-49
2023/07/05 01:30:13;;;;;;;4.57;3.05;;;;;;;19.56;59.45;101117.72;4976054;28;20106;-48
2023/07/05 01:32:55;;;;;;;4.32;3.03;;;;;;;19.47;58.69;101127.41;4975664;28;20034;-48
2023/07/05 01:35:29;;;;;;;4.63;2.92;;;;;;;19.43;59.45;101127.13;4975597;28;20058;-46
2023/07/05 01:37:55;;;;;;;4.15;2.95;;;;;;;19.45;58.74;101124.16;4975626;28;20022;-48
2023/07/05 01:40:22;;;;;;;3.88;3.35;;;;;;;19.48;58.76;101112.75;4975483;28;20101;-47
2023/07/05 01:42:55;;;;;;;6.35;4.43;;;;;;;19.30;59.42;101118.56;4975630;28;20030;-45
2023/07/05 01:45:42;;;;;;;4.50;3.28;;;;;;;19.04;59.77;101121.03;4975410;28;20072;-46
2023/07/05 01:48:26;;;;;;;4.97;3.70;;;;;;;19.26;59.72;101119.06;4975610;28;20046;-47
2023/07/05 01:51:17;;;;;;;4.13;2.70;;;;;;;19.40;58.63;101110.53;4975478;28;20471;-45
2023/07/05 01:53:51;;;;;;;8.48;6.90;;;;;;;19.38;58.37;101128.97;4935894;28;20038;-47
2023/07/05 01:56:25;;;;;;;8.68;4.93;;;;;;;19.69;58.71;101130.88;4975328;28;20037;-46
2023/07/05 01:58:54;;;;;;;5.32;3.42;;;;;;;19.85;57.60;101122.88;4975150;28;20035;-46
2023/07/05 02:01:23;;;;;;;9.43;5.40;;;;;;;19.84;57.54;101121.22;4975129;28;20042;-46
2023/07/05 02:03:50;;;;;;;6.95;4.00;;;;;;;20.19;56.80;101129.59;4975118;28;20155;-45
2023/07/05 02:06:21;;;;;;;5.32;3.95;;;;;;;20.54;56.31;101133.59;4975069;28;20050;-48
2023/07/05 02:08:50;;;;;;;6.35;4.28;;;;;;;20.73;54.87;101133.97;4975411;28;20030;-46
2023/07/05 02:11:17;;;;;;;6.18;3.50;;;;;;;20.78;54.86;101136.72;4974945;28;20077;-47
2023/07/05 02:13:43;;;;;;;4.72;3.22;;;;;;;20.82;54.29;101135.06;4975090;28;20494;-50
2023/07/05 02:16:09;;;;;;;6.15;2.78;;;;;;;20.94;53.78;101134.88;4974902;28;20026;-45
2023/07/05 02:18:36;;;;;;;3.83;2.78;;;;;;;21.08;53.20;101131.34;4974847;28;20023;-48
2023/07/05 02:21:02;;;;;;;4.78;3.20;;;;;;;21.27;52.62;101141.75;4974714;28;20102;-45
2023/07/05 02:23:28;;;;;;;3.72;3.00;;;;;;;21.64;51.89;101144.25;4975127;28;20105;-49
2023/07/05 02:26:03;;;;;;;4.72;3.28;;;;;;;21.76;51.08;101125.69;4974797;28;20039;-45
2023/07/05 02:28:29;;;;;;;4.65;2.88;;;;;;;22.11;50.57;101124.88;4974631;28;20046;-49
2023/07/05 02:30:55;;;;;;;6.18;2.97;;;;;;;22.24;50.33;101128.94;4974626;28;20114;-47
2023/07/05 02:33:22;;;;;;;5.10;3.17;;;;;;;22.33;49.22;101123.75;4974730;28;20058;-50
2023/07/05 02:35:48;;;;;;;6.65;2.80;;;;;;;21.87;50.73;101131.97;4974767;28;20058;-48
2023/07/05 02:38:14;;;;;;;5.38;3.58;;;;;;;21.93;50.50;101128.16;4974451;28;20030;-46
2023/07/05 02:40:47;;;;;;;8.85;3.67;;;;;;;21.46;51.82;101131.16;4974599;28;20026;-46
2023/07/05 02:43:14;;;;;;;5.70;3.45;;;;;;;21.10;53.33;101139.25;4974502;28;20019;-48
2023/07/05 02:45:40;;;;;;;6.75;3.90;;;;;;;21.19;52.90;101143.06;4974262;28;20110;-47
2023/07/05 02:48:06;;;;;;;5.10;3.95;;;;;;;21.01;53.47;101133.53;4974400;28;20051;-49
2023/07/05 02:50:33;;;;;;;5.78;3.90;;;;;;;20.38;55.53;101143.59;4974398;28;20391;-44
2023/07/05 02:52:59;;;;;;;5.82;4.18;;;;;;;20.16;56.07;101129.31;4974350;28;20032;-43
2023/07/05 02:55:25;;;;;;;5.65;3.92;;;;;;;19.87;56.72;101139.72;4974725;28;20078;-44
2023/07/05 02:57:51;;;;;;;6.95;4.00;;;;;;;19.62;57.64;101133.00;4974592;28;20027;-46
2023/07/05 03:00:20;;;;;;;5.70;3.40;;;;;;;19.54;58.36;101133.44;4974276;28;20061;-43
2023/07/05 03:02:46;;;;;;;5.25;3.75;;;;;;;19.18;59.33;101140.44;4974278;28;20035;-47
2023/07/05 03:05:13;;;;;;;6.65;3.75;;;;;;;19.14;59.20;101134.69;4974236;28;20038;-46
2023/07/05 03:07:39;;;;;;;8.68;4.30;;;;;;;19.13;59.50;101143.91;4974252;28;20039;-44
2023/07/05 03:10:07;;;;;;;6.50;4.22;;;;;;;18.71;60.64;101138.28;4974706;28;20035;-47
2023/07/05 03:12:33;;;;;;;5.88;4.40;;;;;;;18.66;61.32;101133.59;4974066;28;20026;-45
2023/07/05 03:15:00;;;;;;;7.35;4.28;;;;;;;18.45;62.08;101145.25;4974028;28;20027;-44
2023/07/05 03:17:26;;;;;;;7.63;4.65;;;;;;;18.45;61.73;101146.06;4974000;28;20031;-45
2023/07/05 03:19:56;;;;;;;11.15;4.95;;;;;;;18.17;63.12;101152.47;4974439;28;20035;-44
2023/07/05 03:22:22;;;;;;;8.52;5.97;;;;;;;18.00;63.79;101156.25;4973957;28;20038;-45
2023/07/05 03:24:51;;;;;;;10.27;5.07;;;;;;;17.59;65.45;101150.97;4973986;28;20118;-47
2023/07/05 03:27:18;;;;;;;9.38;4.97;;;;;;;17.54;65.87;101167.09;4973972;28;20380;-47
2023/07/05 03:29:44;;;;;;;7.68;4.88;;;;;;;17.34;66.29;101158.66;4973925;28;20019;-47
2023/07/05 03:32:10;;;;;;;9.75;5.22;;;;;;;17.10;66.65;101175.00;4973880;28;20504;-46
2023/07/05 03:34:39;;;;;;;8.82;5.30;;;;;;;16.93;67.75;101165.97;4976962;28;20109;-47
2023/07/05 03:37:06;;;;;;;8.88;5.78;;;;;;;16.73;68.61;101166.41;4977854;28;20023;-48
2023/07/05 03:39:32;;;;;;;11.85;5.80;;;;;;;16.64;69.21;101162.38;4978529;28;20046;-46
2023/07/05 03:41:58;;;;;;;9.70;7.30;;;;;;;16.53;69.47;101168.63;4977933;28;20464;-47
2023/07/05 03:44:24;;;;;;;13.27;6.57;;;;;;;16.33;70.71;101166.31;4977599;28;20627;-46
2023/07/05 03:46:51;;;;;;;9.07;6.57;;;;;;;16.37;70.90;101167.47;4977974;28;20082;-46
2023/07/05 03:49:18;;;;;;;11.95;7.25;;;;;;;16.24;71.07;101167.72;4977856;28;20482;-47
2023/07/05 03:51:44;;;;;;;10.60;6.13;;;;;;;16.22;71.26;101164.44;4977656;28;20046;-44
2023/07/05 03:54:11;;;;;;;16.67;7.03;;;;;;;16.17;71.40;101158.91;4977629;28;20042;-48
2023/07/05 03:56:37;;;;;;;12.27;6.47;;;;;;;15.92;72.74;101162.66;4977786;28;20045;-45
2023/07/05 03:59:04;;;;;;;7.97;6.35;;;;;;;15.87;72.94;101170.63;4977441;28;20037;-44
2023/07/05 04:01:31;;;;;;;9.48;6.10;;;;;;;15.74;73.67;101162.75;4977377;28;20029;-45
2023/07/05 04:03:59;;;;;;;8.68;6.45;;;;;;;15.66;74.19;101165.81;4977381;28;20562;-44
2023/07/05 04:06:28;;;;;;;12.73;7.35;;;;;;;15.57;74.41;101163.38;4960014;28;20066;-46
2023/07/05 04:08:55;;;;;;;10.10;7.38;;;;;;;15.61;74.14;101173.75;4977302;28;20055;-44
2023/07/05 04:11:22;;;;;;;12.15;8.45;;;;;;;15.54;74.48;101177.31;4977182;28;20029;-43
2023/07/05 04:13:49;;;;;;;16.50;13.30;;;;;;;15.57;74.25;101182.28;4976942;28;20019;-43
2023/07/05 04:16:19;;;;;;;16.45;9.98;;;;;;;15.56;74.26;101174.44;4977869;28;20031;-44
2023/07/05 04:18:46;;;;;;;41.40;28.88;;;;;;;15.65;74.47;101172.22;4977373;28;20464;-43
2023/07/05 04:21:13;;;;;;;22.58;17.27;;;;;;;15.62;73.84;101169.97;4977264;28;20118;-45
2023/07/05 04:23:40;;;;;;;73.38;62.97;;;;;;;15.65;73.17;101174.94;4977471;28;20081;-44
2023/07/05 04:26:19;;;;;;;74.45;62.60;;;;;;;15.51;74.02;101185.09;4976913;28;20058;-46
2023/07/05 04:28:45;;;;;;;25.63;20.48;;;;;;;15.64;73.77;101176.81;4976900;28;20027;-45
2023/07/05 04:31:18;;;;;;;19.50;15.07;;;;;;;15.58;73.75;101183.91;4977194;28;20031;-44
2023/07/05 04:33:45;;;;;;;21.42;15.57;;;;;;;15.47;74.37;101186.59;4976914;28;20051;-46
2023/07/05 04:36:12;;;;;;;27.17;19.75;;;;;;;15.56;74.13;101194.13;4976833;28;20030;-44
2023/07/05 04:38:38;;;;;;;221.55;175.38;;;;;;;15.46;74.03;101187.66;4976828;28;20081;-44
2023/07/05 04:41:04;;;;;;;34.40;26.52;;;;;;;15.48;74.10;101199.84;4976680;28;20034;-45
2023/07/05 04:43:30;;;;;;;62.85;53.05;;;;;;;15.45;74.56;101196.78;4976968;28;20046;-45
2023/07/05 04:45:59;;;;;;;32.17;25.85;;;;;;;15.49;74.43;101198.81;4976193;28;20113;-44
2023/07/05 04:48:28;;;;;;;30.65;25.45;;;;;;;15.50;74.24;101208.53;4976513;28;20026;-44
2023/07/05 04:50:57;;;;;;;25.80;17.92;;;;;;;15.48;74.34;101202.53;4976430;28;20035;-45
2023/07/05 04:53:28;;;;;;;15.52;13.13;;;;;;;15.34;75.12;101201.09;4976501;28;20031;-48
2023/07/05 04:55:56;;;;;;;24.25;17.25;;;;;;;15.21;75.10;101196.72;4976732;28;20054;-47
2023/07/05 04:58:24;;;;;;;25.02;19.67;;;;;;;15.36;74.65;101206.25;4976395;28;20038;-46
2023/07/05 05:00:51;;;;;;;21.83;18.05;;;;;;;15.29;74.70;101206.34;4976317;28;20031;-44
2023/07/05 05:03:20;;;;;;;25.15;18.85;;;;;;;15.16;75.38;101209.22;4976247;28;20031;-46
2023/07/05 05:05:51;;;;;;;28.42;18.40;;;;;;;15.21;75.00;101202.09;4976297;28;20037;-44
2023/07/05 05:08:19;;;;;;;25.48;19.35;;;;;;;15.22;74.79;101200.22;4976238;28;20022;-46
2023/07/05 05:10:49;;;;;;;50.38;36.65;;;;;;;15.32;74.34;101211.25;4976075;28;20030;-47
2023/07/05 05:13:15;;;;;;;32.47;26.50;;;;;;;15.32;74.15;101217.50;4976192;28;20030;-47
2023/07/05 05:15:41;;;;;;;50.58;35.58;;;;;;;15.18;74.63;101220.59;4976755;28;20382;-44
2023/07/05 05:18:09;;;;;;;42.78;32.38;;;;;;;15.15;74.46;101219.16;4976755;28;20030;-47
2023/07/05 05:20:38;;;;;;;55.40;39.67;;;;;;;15.12;74.64;101222.34;4976072;28;20484;-44
2023/07/05 05:23:05;;;;;;;26.58;19.48;;;;;;;15.18;74.56;101220.59;4976031;28;20034;-45
2023/07/05 05:25:32;;;;;;;23.48;17.83;;;;;;;15.07;74.89;101215.97;4975957;28;20037;-44
2023/07/05 05:27:59;;;;;;;22.58;15.63;;;;;;;15.09;74.90;101216.56;4975969;28;20093;-47
2023/07/05 05:30:25;;;;;;;17.88;15.20;;;;;;;15.05;74.71;101219.72;4975877;28;20027;-45
2023/07/05 05:32:51;;;;;;;21.27;16.52;;;;;;;14.90;75.29;101219.28;4975816;28;20029;-46
2023/07/05 05:35:18;;;;;;;38.72;29.33;;;;;;;14.97;75.04;101216.50;4975753;28;20065;-47
2023/07/05 05:37:44;;;;;;;26.67;21.67;;;;;;;14.86;75.31;101220.75;4975667;28;20023;-47
2023/07/05 05:40:11;;;;;;;24.30;16.52;;;;;;;14.91;75.04;101223.63;4975630;28;20035;-46
2023/07/05 05:42:38;;;;;;;16.38;13.85;;;;;;;14.85;75.07;101226.38;4975514;28;20027;-48
2023/07/05 05:45:05;;;;;;;19.63;15.00;;;;;;;14.70;76.35;101221.34;4975411;28;20078;-45
2023/07/05 05:47:31;;;;;;;20.88;14.57;;;;;;;14.62;76.98;101227.06;4975487;28;20065;-47
2023/07/05 05:49:58;;;;;;;19.90;13.63;;;;;;;14.63;77.09;101223.31;4975306;28;20109;-47
2023/07/05 05:52:24;;;;;;;13.95;11.30;;;;;;;14.78;76.29;101227.28;4975632;28;20030;-47
2023/07/05 05:54:50;;;;;;;19.88;12.50;;;;;;;14.73;76.91;101219.06;4975744;28;20054;-47
2023/07/05 05:57:16;;;;;;;11.38;8.82;;;;;;;14.84;76.32;101217.47;4957435;28;20026;-45
2023/07/05 05:59:43;;;;;;;14.05;9.48;;;;;;;14.82;76.38;101214.16;4975238;28;20093;-45
2023/07/05 06:02:10;;;;;;;13.07;10.05;;;;;;;14.70;77.39;101224.06;4975385;28;20056;-47
2023/07/05 06:04:36;;;;;;;19.38;15.63;;;;;;;14.77;76.29;101214.88;4975465;28;20106;-47
2023/07/05 06:07:03;;;;;;;21.15;15.45;;;;;;;14.64;77.28;101215.00;4975177;28;20390;-47
2023/07/05 06:09:29;;;;;;;17.90;13.35;;;;;;;14.78;76.81;101221.09;4975408;28;20472;-44
2023/07/05 06:11:55;;;;;;;13.48;10.48;;;;;;;14.67;77.19;101216.44;4975281;28;20034;-48
2023/07/05 06:14:21;;;;;;;12.23;9.25;;;;;;;14.67;77.21;101219.94;4975029;28;20038;-45
2023/07/05 06:16:48;;;;;;;13.88;8.95;;;;;;;14.76;76.89;101218.59;4974970;28;20081;-44
2023/07/05 06:19:14;;;;;;;7.38;6.10;;;;;;;14.75;76.90;101224.22;4975264;28;20034;-48
2023/07/05 06:21:40;;;;;;;10.80;6.95;;;;;;;14.59;77.59;101219.41;4974895;28;20035;-43
2023/07/05 06:24:06;;;;;;;10.30;6.30;;;;;;;14.67;77.46;101225.34;4974957;28;20110;-47
2023/07/05 06:26:32;;;;;;;12.13;7.22;;;;;;;14.65;77.35;101218.50;4974764;28;20081;-46
2023/07/05 06:28:59;;;;;;;10.88;6.78;;;;;;;14.63;77.67;101221.44;4974999;28;20049;-44
2023/07/05 06:31:33;;;;;;;10.23;7.05;;;;;;;14.63;77.82;101215.22;4974609;28;20058;-44
2023/07/05 06:34:02;;;;;;;7.80;5.65;;;;;;;14.70;77.04;101218.66;4974487;28;20058;-46
2023/07/05 06:36:28;;;;;;;8.10;5.72;;;;;;;14.53;77.69;101224.63;4974348;28;20115;-47
2023/07/05 06:38:54;;;;;;;10.32;7.40;;;;;;;14.51;78.25;101212.44;4974370;28;20023;-45
2023/07/05 06:41:20;;;;;;;9.65;6.63;;;;;;;14.64;77.72;101211.47;4974446;28;20031;-45
2023/07/05 06:43:47;;;;;;;11.32;6.03;;;;;;;14.60;78.03;101208.41;4974311;28;20085;-46
2023/07/05 06:46:13;;;;;;;9.35;6.50;;;;;;;14.71;76.95;101215.78;4974009;28;20407;-44
2023/07/05 06:48:39;;;;;;;9.07;7.15;;;;;;;14.61;77.41;101217.34;4974184;28;20023;-45
2023/07/05 06:51:05;;;;;;;9.88;5.75;;;;;;;14.58;77.63;101215.06;4974369;28;20045;-46
2023/07/05 06:53:31;;;;;;;7.93;5.68;;;;;;;14.57;77.93;101208.88;4975005;28;20475;-45
2023/07/05 06:55:58;;;;;;;7.20;5.20;;;;;;;14.44;78.28;101215.19;4975433;28;20022;-44
2023/07/05 06:58:24;;;;;;;9.60;5.55;;;;;;;14.42;78.50;101219.13;4975166;28;20125;-44
2023/07/05 07:00:51;;;;;;;12.68;5.68;;;;;;;14.30;79.16;101219.03;4974134;28;20105;-44
2023/07/05 07:03:18;;;;;;;11.25;5.22;;;;;;;14.33;79.58;101226.69;4974467;28;20078;-45
2023/07/05 07:05:55;;;;;;;8.63;5.55;;;;;;;14.33;79.47;101225.88;4973934;28;20029;-44
2023/07/05 07:08:24;;;;;;;6.45;5.15;;;;;;;14.37;79.47;101230.56;4973050;28;20023;-44
2023/07/05 07:10:50;;;;;;;10.45;5.93;;;;;;;14.40;79.19;101230.13;4973875;28;20031;-44
2023/07/05 07:13:17;;;;;;;15.15;5.60;;;;;;;14.25;79.72;101227.78;4973937;28;20026;-47
2023/07/05 07:15:43;;;;;;;9.13;5.75;;;;;;;14.14;80.65;101231.19;4973899;28;20054;-46
2023/07/05 07:18:10;;;;;;;8.50;5.13;;;;;;;14.21;80.59;101231.13;4973979;28;20391;-44
2023/07/05 07:20:37;;;;;;;12.20;6.25;;;;;;;14.20;80.89;101224.09;4973858;28;20420;-47
2023/07/05 07:23:03;;;;;;;14.18;6.20;;;;;;;14.27;80.78;101230.25;4973919;28;20050;-45
2023/07/05 07:25:29;;;;;;;11.48;6.30;;;;;;;14.13;81.50;101234.09;4974296;28;20069;-44
2023/07/05 07:27:55;;;;;;;11.35;6.15;;;;;;;14.24;80.87;101236.06;4973995;28;20102;-47
2023/07/05 07:30:22;;;;;;;8.98;6.53;;;;;;;14.13;81.95;101223.34;4974373;28;20447;-47
2023/07/05 07:32:49;;;;;;;11.18;6.68;;;;;;;14.25;81.84;101224.25;4974144;28;20034;-45
2023/07/05 07:35:15;;;;;;;11.95;5.95;;;;;;;14.28;81.71;101223.84;4974039;28;20555;-44
2023/07/05 07:37:41;;;;;;;15.43;6.10;;;;;;;14.24;81.90;101215.38;4974048;28;20109;-44
2023/07/05 07:40:08;;;;;;;9.52;5.95;;;;;;;14.19;82.52;101211.69;4973940;28;20098;-46
2023/07/05 07:42:34;;;;;;;10.65;6.40;;;;;;;14.24;81.76;101222.63;4973908;28;20034;-44
2023/07/05 07:45:01;;;;;;;13.50;6.38;;;;;;;14.24;81.46;101220.75;4973793;28;20496;-47
2023/07/05 07:47:27;;;;;;;8.43;5.45;;;;;;;14.24;81.07;101211.84;4973959;28;20055;-48
2023/07/05 07:49:53;;;;;;;11.32;5.93;;;;;;;14.16;82.28;101217.53;4973953;28;20102;-44
2023/07/05 07:52:19;;;;;;;10.65;5.35;;;;;;;14.12;82.14;101214.44;4974379;28;20031;-43
2023/07/05 07:54:46;;;;;;;10.32;5.72;;;;;;;14.00;82.66;101214.34;4973798;28;20026;-48
2023/07/05 07:57:12;;;;;;;9.32;5.63;;;;;;;14.04;82.77;101216.56;4973694;28;20027;-44
2023/07/05 07:59:41;;;;;;;9.88;5.20;;;;;;;14.10;82.28;101218.38;4973861;28;20030;-47
2023/07/05 08:02:12;;;;;;;8.82;5.32;;;;;;;14.14;81.86;101215.03;4973688;28;20093;-44
2023/07/05 08:04:46;;;;;;;12.40;5.30;;;;;;;14.12;81.56;101216.31;4973682;28;20102;-45
2023/07/05 08:07:14;;;;;;;9.63;4.93;;;;;;;14.10;81.55;101221.06;4973728;28;20467;-43
2023/07/05 08:09:41;;;;;;;7.38;5.22;;;;;;;14.03;81.33;101221.13;4973645;28;20033;-43
2023/07/05 08:12:08;;;;;;;8.93;5.25;;;;;;;14.04;81.82;101221.94;4973528;28;20116;-44
2023/07/05 08:14:34;;;;;;;9.57;5.38;;;;;;;14.04;81.35;101219.25;4973980;28;20118;-45
2023/07/05 08:17:01;;;;;;;9.18;5.22;;;;;;;14.04;81.52;101216.56;4973631;28;20027;-43
2023/07/05 08:19:27;;;;;;;10.90;4.95;;;;;;;14.10;81.68;101226.44;4974808;28;20105;-48
2023/07/05 08:21:53;;;;;;;8.98;5.28;;;;;;;14.13;81.93;101223.34;4977089;28;20030;-47
2023/07/05 08:24:19;;;;;;;7.38;5.32;;;;;;;14.11;81.69;101220.88;4976972;28;20027;-47
2023/07/05 08:26:46;;;;;;;14.02;8.00;;;;;;;14.12;81.93;101222.50;4977020;28;20480;-46
2023/07/05 08:29:12;;;;;;;10.95;7.82;;;;;;;14.25;81.18;101227.78;4977179;28;20035;-45
2023/07/05 08:31:38;;;;;;;12.18;6.72;;;;;;;14.05;82.03;101224.44;4976722;28;20026;-44
2023/07/05 08:34:04;;;;;;;7.80;5.32;;;;;;;13.95;82.42;101222.25;4976831;28;20027;-47
2023/07/05 08:36:39;;;;;;;10.77;5.65;;;;;;;14.06;82.07;101222.56;4976951;28;20026;-45
2023/07/05 08:39:07;;;;;;;9.00;6.03;;;;;;;14.10;82.17;101230.00;4976738;28;20058;-44
2023/07/05 08:41:42;;;;;;;11.73;5.90;;;;;;;14.13;82.25;101226.03;4976729;28;20097;-44
2023/07/05 08:44:23;;;;;;;;;;;;;;;14.10;82.06;101219.22;4977050;28;20027;-44
2023/07/05 08:47:05;;;;;;;8.15;6.07;;;;;;;14.02;82.62;101227.56;4976458;28;19918;-46
2023/07/05 08:49:33;;;;;;;7.57;5.18;;;;;;;14.08;81.53;101223.16;4976591;28;20388;-49
2023/07/05 08:52:01;;;;;;;8.77;5.78;;;;;;;13.88;82.97;101224.16;4976379;28;20089;-46
2023/07/05 08:54:32;;;;;;;9.73;5.55;;;;;;;13.93;83.05;101224.31;4976463;28;20058;-47
2023/07/05 08:57:20;;;;;;;9.00;5.18;;;;;;;13.96;82.98;101226.56;4976481;28;20034;-47
2023/07/05 08:59:54;;;;;;;10.00;5.53;;;;;;;13.93;83.19;101229.69;4976518;28;20082;-45
2023/07/05 09:02:22;;;;;;;11.17;6.30;;;;;;;13.99;82.98;101218.06;4976527;28;20476;-44
2023/07/05 09:04:50;;;;;;;10.48;6.32;;;;;;;14.00;82.78;101221.59;4976221;28;20027;-47
2023/07/05 09:07:37;;;;;;;12.43;5.72;;;;;;;14.06;82.81;101226.09;4976517;28;20041;-44
2023/07/05 09:10:22;;;;;;;9.30;5.70;;;;;;;14.02;83.02;101218.66;4976202;28;20039;-44
2023/07/05 09:12:59;;;;;;;11.43;6.20;;;;;;;13.96;83.35;101223.06;4976547;28;20053;-46
2023/07/05 09:15:38;;;;;;;12.20;6.70;;;;;;;13.84;83.84;101227.50;4976482;28;20042;-46
2023/07/05 09:18:07;;;;;;;8.35;5.75;;;;;;;13.83;83.85;101220.47;4976396;28;20031;-44
2023/07/05 09:20:55;;;;;;;9.50;5.97;;;;;;;13.86;83.86;101222.72;4976075;28;20034;-48
2023/07/05 09:23:38;;;;;;;10.15;6.50;;;;;;;13.90;83.68;101234.69;4975922;28;20031;-45
2023/07/05 09:26:30;;;;;;;8.38;5.55;;;;;;;13.97;82.91;101227.38;4976309;28;20102;-46
2023/07/05 09:29:08;;;;;;;11.32;6.20;;;;;;;13.92;83.18;101229.91;4976146;28;20391;-46
2023/07/05 09:31:36;;;;;;;9.23;5.65;;;;;;;13.73;84.13;101231.72;4975115;28;20022;-45
2023/07/05 09:34:37;;;;;;;11.25;5.97;;;;;;;13.81;83.96;101233.31;4976915;28;20023;-44
2023/07/05 09:37:22;;;;;;;9.88;5.85;;;;;;;13.93;83.30;101232.38;4975654;28;20483;-47
2023/07/05 09:40:15;;;;;;;8.25;5.15;;;;;;;13.76;83.73;101230.44;4975788;28;20031;-48
2023/07/05 09:42:45;;;;;;;11.65;6.07;;;;;;;13.81;83.79;101223.38;4976048;28;20109;-47
2023/07/05 09:45:16;;;;;;;8.57;5.97;;;;;;;13.84;83.10;101225.63;4975615;28;20140;-47
2023/07/05 09:47:46;;;;;;;8.27;5.38;;;;;;;13.89;82.24;101228.50;4975601;28;20027;-43
2023/07/05 09:50:18;;;;;;;8.82;5.40;;;;;;;13.88;82.49;101226.84;4975399;28;20019;-44
2023/07/05 09:53:06;;;;;;;8.68;4.55;;;;;;;13.92;82.55;101224.53;4975378;28;20081;-45
2023/07/05 09:55:32;;;;;;;8.93;6.07;;;;;;;13.90;82.58;101219.38;4945431;28;20459;-44
2023/07/05 09:57:59;;;;;;;12.55;5.43;;;;;;;13.94;82.34;101222.47;4975335;28;20114;-45
2023/07/05 10:00:36;;;;;;;11.13;5.70;;;;;;;13.91;82.57;101215.63;4976045;28;20367;-44
2023/07/05 10:03:15;;;;;;;8.02;4.68;;;;;;;13.97;82.34;101216.63;4975808;28;20031;-44
2023/07/05 10:05:51;;;;;;;8.27;5.65;;;;;;;13.87;82.84;101219.78;4975159;28;20077;-48
2023/07/05 10:08:17;;;;;;;10.65;5.60;;;;;;;13.90;83.09;101214.00;4958236;28;20046;-47
2023/07/05 10:10:44;;;;;;;9.32;5.40;;;;;;;13.90;83.06;101221.25;4975407;28;20106;-46
2023/07/05 10:13:19;;;;;;;9.35;5.53;;;;;;;13.86;83.14;101211.94;4975056;28;20027;-43
2023/07/05 10:15:58;;;;;;;7.55;5.78;;;;;;;13.93;nan;101218.91;4975145;28;20033;-44
2023/07/05 10:18:31;;;;;;;9.57;6.10;;;;;;;13.87;83.11;101216.28;4975107;28;20480;-45
2023/07/05 10:21:01;;;;;;;12.20;5.38;;;;;;;13.98;82.98;101226.34;4974867;28;20438;-44
2023/07/05 10:23:30;;;;;;;10.05;5.25;;;;;;;14.09;82.56;101219.44;4974981;28;20022;-44
2023/07/05 10:26:03;;;;;;;14.40;6.03;;;;;;;14.04;82.19;101224.63;4975755;28;20476;-44
2023/07/05 10:28:31;;;;;;;11.63;5.40;;;;;;;14.09;82.22;101219.44;4974921;28;20034;-47
2023/07/05 10:31:00;;;;;;;12.75;5.30;;;;;;;14.07;82.49;101225.03;4974813;28;20383;-44
2023/07/05 10:33:29;;;;;;;7.28;5.22;;;;;;;14.02;82.66;101219.50;4974749;28;20041;-44
2023/07/05 10:36:05;;;;;;;8.55;5.45;;;;;;;14.03;82.67;101213.06;4974647;28;20387;-44
2023/07/05 10:38:40;;;;;;;9.65;5.40;;;;;;;14.00;83.34;101211.63;4974945;28;20030;-48
2023/07/05 10:41:12;;;;;;;;;;;;;;;14.05;83.45;101211.00;4975569;28;20039;-46
2023/07/05 10:43:38;;;;;;;14.57;6.30;;;;;;;13.98;83.58;101216.41;4974416;28;20259;-46
2023/07/05 10:46:07;;;;;;;12.93;5.22;;;;;;;14.10;82.80;101219.22;4974292;28;20050;-44
2023/07/05 10:48:41;;;;;;;10.18;5.82;;;;;;;14.05;82.97;101213.69;4974665;28;20039;-45
2023/07/05 10:51:23;;;;;;;8.90;5.22;;;;;;;14.10;83.18;101213.00;4974614;28;20607;-43
2023/07/05 10:54:31;;;;;;;7.97;5.35;;;;;;;14.13;83.24;101212.56;4974299;28;20031;-43
2023/07/05 10:57:01;;;;;;;9.95;5.70;;;;;;;14.10;82.56;101208.47;4948182;28;20046;-43
2023/07/05 10:59:50;;;;;;;12.48;6.00;;;;;;;14.06;83.17;101212.63;4974318;28;20534;-45
2023/07/05 11:02:33;;;;;;;5.78;5.05;;;;;;;14.11;82.92;101203.91;4974263;28;20026;-43
2023/07/05 11:05:00;;;;;;;12.27;5.80;;;;;;;14.18;82.88;101213.56;4974220;28;20034;-46
2023/07/05 11:07:31;;;;;;;10.18;5.35;;;;;;;14.13;82.55;101212.56;4974131;28;20458;-44
2023/07/05 11:09:58;;;;;;;11.30;5.75;;;;;;;14.17;82.27;101214.59;4974558;28;20082;-44
2023/07/05 11:12:28;;;;;;;10.35;5.55;;;;;;;14.11;82.40;101209.28;4974077;28;20066;-44
2023/07/05 11:14:57;;;;;;;11.13;5.50;;;;;;;14.08;82.49;101215.09;4974160;28;20031;-45
2023/07/05 11:17:36;;;;;;;8.25;5.43;;;;;;;14.25;81.91;101216.19;4974124;28;20491;-45
2023/07/05 11:20:23;;;;;;;9.10;5.35;;;;;;;14.22;82.00;101205.88;4973975;28;20022;-46
2023/07/05 11:22:49;;;;;;;9.57;4.97;;;;;;;14.21;82.04;101199.66;4974016;28;20035;-48
2023/07/05 11:25:19;;;;;;;7.70;4.68;;;;;;;14.29;81.55;101197.72;4973921;28;20108;-48
2023/07/05 11:27:54;;;;;;;9.23;4.82;;;;;;;14.23;81.81;101196.75;4974009;28;20026;-44
2023/07/05 11:30:42;;;;;;;9.27;4.95;;;;;;;14.15;82.16;101205.91;4974027;28;20102;-47
2023/07/05 11:33:09;;;;;;;8.20;4.93;;;;;;;14.17;82.12;101208.41;4974016;28;20035;-44
2023/07/05 11:35:47;;;;;;;12.32;6.03;;;;;;;14.18;82.25;101204.66;4973795;28;20038;-46